Viimsi — ES2084 — position and weather

sailwx.info

Track history (hours):
 
Tides and Currents Weather Stations Pressure Air Temp Water Temp Dewpoint Dewpoint Depression Visibility Wind Speed Wind Dir Waves Ship Positions

Viimsi

Last reported at 2016-May-24 12:17 UTC. Time now 2016-May-28 10:03 UTC.
Position N 59°30' E 024°39'.

Length 78 m; draft 4.7 m.

Type: Ship. MMSI: 276297000.

Date/timePositionNaut miles runAvg speedWind from/ knotsBaromVisibWave heightAir tempDewpointWater temp
2016-May-24 12:17N 59°30' E 024°39'3 2.5
2016-May-24 11:16N 59°27' E 024°37'0 0.0
2016-May-24 09:16N 59°27' E 024°37'0 0.0
2016-May-24 07:22N 59°27' E 024°37'0 0.0
2016-May-24 05:16N 59°27' E 024°37'0 0.0
2016-May-24 04:20N 59°27' E 024°37'3 2.9
2016-May-24 03:11N 59°28' E 024°44'0 0.0
2016-May-23 10:17N 59°28' E 024°43'3 0.8
2016-May-23 06:33N 59°30' E 024°40'3 2.1
2016-May-23 05:18N 59°28' E 024°43'4 5.1
2016-May-23 04:33N 59°30' E 024°37'1 0.1
2016-May-22 08:32N 59°30' E 024°39'  
2016-May-20 04:12N 59°28' E 024°43'0 0.0
2016-May-20 03:32N 59°28' E 024°43'0 0.0
2016-May-20 02:25N 59°28' E 024°43'0 0.0
2016-May-20 01:33N 59°28' E 024°43'1 0.3
2016-May-19 22:33N 59°28' E 024°44'5 2.1
2016-May-19 20:18N 59°29' E 024°35'2 0.1
2016-May-19 04:13N 59°30' E 024°40'2 0.2
2016-May-18 18:32N 59°28' E 024°39'0 0.0
2016-May-18 17:30N 59°28' E 024°39'0 0.0
2016-May-18 16:31N 59°28' E 024°39'0 0.0
2016-May-18 15:30N 59°28' E 024°39'0 0.0
2016-May-18 14:33N 59°28' E 024°39'0 0.0
2016-May-18 13:31N 59°28' E 024°39'0 0.2
2016-May-18 12:33N 59°28' E 024°39'  
2016-May-16 02:11N 59°28' E 024°43'3 0.1
2016-May-14 17:21N 59°29' E 024°37'1 1.6
2016-May-14 16:33N 59°28' E 024°39'0 0.0
2016-May-14 15:33N 59°28' E 024°39'0 0.0
2016-May-14 14:32N 59°28' E 024°39'0 0.0
2016-May-14 13:33N 59°28' E 024°39'0 0.0
2016-May-14 12:33N 59°28' E 024°39'  
Track history (hours):
 
Tides and Currents Weather Stations Pressure Air Temp Water Temp Dewpoint Dewpoint Depression Visibility Wind Speed Wind Dir Waves Ship Positions

Viimsi

Last reported at 2016-May-24 12:17 UTC. Time now 2016-May-28 10:03 UTC.
Position N 59°30' E 024°39'.

Length 78 m; draft 4.7 m.

Type: Ship. MMSI: 276297000.

Date/timePositionNaut miles runAvg speedWind from/ knotsBaromVisibWave heightAir tempDewpointWater temp
2016-May-24 12:17N 59°30' E 024°39'3 2.5
2016-May-24 11:16N 59°27' E 024°37'0 0.0
2016-May-24 09:16N 59°27' E 024°37'0 0.0
2016-May-24 07:22N 59°27' E 024°37'0 0.0
2016-May-24 05:16N 59°27' E 024°37'0 0.0
2016-May-24 04:20N 59°27' E 024°37'3 2.9
2016-May-24 03:11N 59°28' E 024°44'0 0.0
2016-May-23 10:17N 59°28' E 024°43'3 0.8
2016-May-23 06:33N 59°30' E 024°40'3 2.1
2016-May-23 05:18N 59°28' E 024°43'4 5.1
2016-May-23 04:33N 59°30' E 024°37'1 0.1
2016-May-22 08:32N 59°30' E 024°39'  
2016-May-20 04:12N 59°28' E 024°43'0 0.0
2016-May-20 03:32N 59°28' E 024°43'0 0.0
2016-May-20 02:25N 59°28' E 024°43'0 0.0
2016-May-20 01:33N 59°28' E 024°43'1 0.3
2016-May-19 22:33N 59°28' E 024°44'5 2.1
2016-May-19 20:18N 59°29' E 024°35'2 0.1
2016-May-19 04:13N 59°30' E 024°40'2 0.2
2016-May-18 18:32N 59°28' E 024°39'0 0.0
2016-May-18 17:30N 59°28' E 024°39'0 0.0
2016-May-18 16:31N 59°28' E 024°39'0 0.0
2016-May-18 15:30N 59°28' E 024°39'0 0.0
2016-May-18 14:33N 59°28' E 024°39'0 0.0
2016-May-18 13:31N 59°28' E 024°39'0 0.2
2016-May-18 12:33N 59°28' E 024°39'  
2016-May-16 02:11N 59°28' E 024°43'3 0.1
2016-May-14 17:21N 59°29' E 024°37'1 1.6
2016-May-14 16:33N 59°28' E 024°39'0 0.0
2016-May-14 15:33N 59°28' E 024°39'0 0.0
2016-May-14 14:32N 59°28' E 024°39'0 0.0
2016-May-14 13:33N 59°28' E 024°39'0 0.0
2016-May-14 12:33N 59°28' E 024°39'  

Dump ship's entire track history